Time;durP1;ratioP1;P1;durP2;ratioP2;P2;SDS_P1;SDS_P2;PMS_P1;PMS_P2;Temp;Humidity;BMP_temperature;BMP_pressure;BME280_temperature;BME280_humidity;BME280_pressure;Samples;Min_cycle;Max_cycle;Signal;HPM_P1;HPM_P2
2021/03/15 00:00:49;;;;;;;28.80;9.93;;;;;;;;;;5093619;28;20318;-58
2021/03/15 00:03:15;;;;;;;37.55;12.80;;;;;;;;;;5076090;28;20036;-59
2021/03/15 00:05:40;;;;;;;31.10;13.40;;;;;;;;;;5093577;28;20100;-59
2021/03/15 00:08:06;;;;;;;30.87;8.87;;;;;;;;;;5078282;28;20027;-59
2021/03/15 00:10:32;;;;;;;32.80;10.93;;;;;;;;;;5096307;28;20020;-59
2021/03/15 00:12:57;;;;;;;20.40;7.23;;;;;;;;;;5095010;28;20028;-59
2021/03/15 00:15:23;;;;;;;15.67;4.30;;;;;;;;;;5060811;28;20024;-62
2021/03/15 00:17:48;;;;;;;12.85;4.10;;;;;;;;;;5093748;28;20054;-60
2021/03/15 00:20:15;;;;;;;13.20;3.73;;;;;;;;;;5093642;28;20498;-60
2021/03/15 00:22:41;;;;;;;17.70;4.20;;;;;;;;;;5092959;28;20491;-59
2021/03/15 00:25:07;;;;;;;8.75;3.65;;;;;;;;;;5090780;28;20066;-61
2021/03/15 00:27:33;;;;;;;12.93;3.60;;;;;;;;;;5063471;28;20447;-59
2021/03/15 00:29:58;;;;;;;14.07;3.85;;;;;;;;;;5054901;28;20037;-61
2021/03/15 00:32:23;;;;;;;13.67;4.47;;;;;;;;;;5089047;28;20184;-59
2021/03/15 00:34:49;;;;;;;19.40;7.03;;;;;;;;;;5069023;28;20012;-60
2021/03/15 00:37:14;;;;;;;31.37;10.00;;;;;;;;;;5055092;28;20108;-59
2021/03/15 00:39:39;;;;;;;42.10;11.17;;;;;;;;;;5072251;28;20123;-59
2021/03/15 00:42:05;;;;;;;26.37;9.30;;;;;;;;;;5054807;28;20040;-59
2021/03/15 00:44:31;;;;;;;30.10;10.18;;;;;;;;;;5072207;28;20468;-58
2021/03/15 00:46:56;;;;;;;33.17;11.93;;;;;;;;;;5054871;28;20040;-60
2021/03/15 00:49:22;;;;;;;24.47;9.13;;;;;;;;;;5072627;28;20037;-59
2021/03/15 00:51:48;;;;;;;25.73;6.45;;;;;;;;;;5053929;28;20362;-59
2021/03/15 00:54:13;;;;;;;11.80;3.47;;;;;;;;;;5054545;28;20449;-60
2021/03/15 00:56:39;;;;;;;12.15;3.72;;;;;;;;;;5087446;28;20055;-60
2021/03/15 00:59:04;;;;;;;10.03;3.00;;;;;;;;;;5037728;28;20531;-59
2021/03/15 01:01:30;;;;;;;13.65;3.53;;;;;;;;;;5087896;28;20047;-59
2021/03/15 01:03:59;;;;;;;8.20;2.42;;;;;;;;;;5053985;28;20123;-59
2021/03/15 01:06:24;;;;;;;6.63;2.90;;;;;;;;;;5087931;28;20083;-59
2021/03/15 01:09:10;;;;;;;10.52;3.10;;;;;;;;;;5063732;28;20071;-60
2021/03/15 01:11:52;;;;;;;10.20;3.60;;;;;;;;;;5071469;28;20044;-59
2021/03/15 01:14:18;;;;;;;12.40;4.00;;;;;;;;;;5037682;28;20032;-59
2021/03/15 01:17:13;;;;;;;16.95;5.82;;;;;;;;;;5063973;28;20048;-58
2021/03/15 01:19:43;;;;;;;15.88;6.50;;;;;;;;;;5086643;28;20385;-59
2021/03/15 01:22:08;;;;;;;17.30;5.27;;;;;;;;;;5072273;28;20057;-59
2021/03/15 01:24:34;;;;;;;15.77;6.43;;;;;;;;;;5072027;28;20453;-60
2021/03/15 01:26:59;;;;;;;10.03;3.77;;;;;;;;;;5071825;28;20071;-60
2021/03/15 01:29:24;;;;;;;8.80;4.40;;;;;;;;;;5072555;28;20477;-62
2021/03/15 01:31:50;;;;;;;11.27;4.53;;;;;;;;;;5071781;28;20020;-60
2021/03/15 01:34:16;;;;;;;10.15;4.03;;;;;;;;;;5072044;28;20135;-59
2021/03/15 01:36:41;;;;;;;11.03;4.57;;;;;;;;;;5071600;28;20542;-63
2021/03/15 01:39:06;;;;;;;8.93;4.73;;;;;;;;;;5072604;28;20027;-59
2021/03/15 01:41:32;;;;;;;10.53;4.93;;;;;;;;;;5072061;28;20431;-59
2021/03/15 01:43:57;;;;;;;8.67;4.60;;;;;;;;;;5070980;28;20534;-59
2021/03/15 01:46:22;;;;;;;11.70;5.57;;;;;;;;;;5037340;28;20032;-59
2021/03/15 01:48:48;;;;;;;12.20;4.73;;;;;;;;;;5056155;28;20055;-59
2021/03/15 01:51:13;;;;;;;12.93;5.22;;;;;;;;;;5091739;28;20110;-59
2021/03/15 01:53:40;;;;;;;8.80;4.53;;;;;;;;;;5073266;28;20433;-59
2021/03/15 01:56:05;;;;;;;12.55;5.20;;;;;;;;;;5091368;28;20062;-59
2021/03/15 01:58:31;;;;;;;14.55;5.07;;;;;;;;;;5073322;28;20127;-59
2021/03/15 02:00:56;;;;;;;14.40;6.22;;;;;;;;;;5090980;28;20031;-59
2021/03/15 02:03:22;;;;;;;11.90;5.03;;;;;;;;;;5091569;28;20075;-59
2021/03/15 02:05:47;;;;;;;10.53;4.90;;;;;;;;;;5073110;28;20032;-59
2021/03/15 02:08:13;;;;;;;11.77;5.77;;;;;;;;;;5091982;28;20507;-60
2021/03/15 02:10:39;;;;;;;9.35;4.65;;;;;;;;;;5091576;28;20107;-59
2021/03/15 02:13:04;;;;;;;8.00;4.70;;;;;;;;;;5091050;28;20032;-59
2021/03/15 02:15:48;;;;;;;16.40;4.87;;;;;;;;;;5091559;28;20036;-59
2021/03/15 02:18:13;;;;;;;10.98;5.38;;;;;;;;;;5072818;28;20092;-59
2021/03/15 02:20:57;;;;;;;14.03;6.03;;;;;;;;;;5091288;28;20032;-59
2021/03/15 02:23:37;;;;;;;11.13;4.72;;;;;;;;;;5091526;28;20111;-59
2021/03/15 02:26:03;;;;;;;7.90;4.28;;;;;;;;;;5090631;28;20032;-59
2021/03/15 02:28:47;;;;;;;8.18;3.83;;;;;;;;;;5091657;28;20043;-59
2021/03/15 02:31:31;;;;;;;8.60;4.00;;;;;;;;;;5073010;28;20070;-58
2021/03/15 02:34:03;;;;;;;8.18;3.58;;;;;;;;;;5090291;28;20028;-58
2021/03/15 02:36:35;;;;;;;12.95;3.85;;;;;;;;;;5091227;28;20503;-59
2021/03/15 02:39:01;;;;;;;10.35;4.18;;;;;;;;;;5090821;28;20174;-58
2021/03/15 02:41:27;;;;;;;15.02;3.67;;;;;;;;;;5091340;28;20070;-59
2021/03/15 02:43:57;;;;;;;11.75;4.07;;;;;;;;;;5072528;28;20066;-58
2021/03/15 02:46:24;;;;;;;13.70;5.05;;;;;;;;;;5073198;28;20039;-58
2021/03/15 02:48:49;;;;;;;;;;;;;;;;;;5056053;28;20115;-58
2021/03/15 02:51:17;;;;;;;10.93;4.50;;;;;;;;;;5091119;28;20015;-60
2021/03/15 02:53:43;;;;;;;8.15;4.95;;;;;;;;;;5091228;28;20032;-58
2021/03/15 02:56:12;;;;;;;10.05;3.95;;;;;;;;;;5090551;28;20377;-58
2021/03/15 02:58:39;;;;;;;9.77;4.45;;;;;;;;;;5072814;28;20505;-58
2021/03/15 03:01:05;;;;;;;11.68;4.38;;;;;;;;;;5090907;28;20028;-58
2021/03/15 03:03:32;;;;;;;10.40;4.15;;;;;;;;;;5090754;28;20040;-59
2021/03/15 03:05:57;;;;;;;;;;;;;;;;;;5090979;28;20085;-58
2021/03/15 03:08:23;;;;;;;14.23;4.43;;;;;;;;;;5091193;28;19908;-59
2021/03/15 03:10:49;;;;;;;12.75;4.43;;;;;;;;;;5091186;28;20016;-58
2021/03/15 03:13:18;;;;;;;9.23;4.00;;;;;;;;;;5090451;28;20028;-59
2021/03/15 03:15:44;;;;;;;8.82;4.40;;;;;;;;;;5092196;28;20020;-59
2021/03/15 03:18:12;;;;;;;15.20;4.65;;;;;;;;;;5093965;28;20093;-57
2021/03/15 03:20:37;;;;;;;9.73;4.22;;;;;;;;;;5094393;28;20118;-59
2021/03/15 03:23:04;;;;;;;20.90;4.97;;;;;;;;;;5094046;28;20103;-59
2021/03/15 03:25:29;;;;;;;;;;;;;;;;;;5076941;28;20024;-60
2021/03/15 03:27:56;;;;;;;11.83;4.00;;;;;;;;;;5093962;28;19904;-59
2021/03/15 03:30:26;;;;;;;10.38;5.93;;;;;;;;;;5094567;28;20036;-60
2021/03/15 03:32:52;;;;;;;12.23;4.78;;;;;;;;;;5094348;28;20024;-60
2021/03/15 03:35:17;;;;;;;10.57;4.88;;;;;;;;;;5075182;28;20020;-58
2021/03/15 03:37:42;;;;;;;14.97;6.90;;;;;;;;;;5075749;28;20047;-60
2021/03/15 03:40:08;;;;;;;11.93;5.27;;;;;;;;;;5093745;28;20036;-58
2021/03/15 03:42:33;;;;;;;15.02;6.63;;;;;;;;;;5094097;28;20043;-58
2021/03/15 03:44:59;;;;;;;16.47;5.70;;;;;;;;;;5058426;28;20020;-60
2021/03/15 03:47:24;;;;;;;12.57;5.70;;;;;;;;;;5094231;28;20084;-59
2021/03/15 03:49:50;;;;;;;11.50;6.50;;;;;;;;;;5075985;28;20047;-58
2021/03/15 03:52:18;;;;;;;13.23;6.97;;;;;;;;;;5093340;28;20059;-59
2021/03/15 03:54:49;;;;;;;13.48;6.72;;;;;;;;;;5093940;28;20031;-59
2021/03/15 03:57:19;;;;;;;15.82;6.20;;;;;;;;;;5093403;28;20036;-59
2021/03/15 03:59:48;;;;;;;17.20;8.82;;;;;;;;;;5093684;28;20062;-59
2021/03/15 04:02:14;;;;;;;19.25;8.07;;;;;;;;;;5093079;28;20024;-59
2021/03/15 04:04:42;;;;;;;17.70;8.00;;;;;;;;;;5093576;28;20040;-58
2021/03/15 04:07:08;;;;;;;14.73;6.85;;;;;;;;;;5092917;28;20024;-59
2021/03/15 04:09:35;;;;;;;18.83;8.05;;;;;;;;;;5075625;28;20078;-59
2021/03/15 04:12:06;;;;;;;23.30;8.40;;;;;;;;;;5093153;28;20034;-60
2021/03/15 04:14:35;;;;;;;15.98;7.63;;;;;;;;;;5093739;28;20451;-59
2021/03/15 04:17:01;;;;;;;25.67;8.57;;;;;;;;;;5093039;28;20123;-59
2021/03/15 04:19:30;;;;;;;20.08;8.52;;;;;;;;;;5074922;28;20034;-59
2021/03/15 04:21:58;;;;;;;24.42;9.13;;;;;;;;;;5075467;28;20536;-59
2021/03/15 04:24:24;;;;;;;24.77;10.07;;;;;;;;;;5092606;28;20078;-59
2021/03/15 04:26:50;;;;;;;24.95;9.65;;;;;;;;;;5093115;28;20036;-59
2021/03/15 04:29:16;;;;;;;24.60;9.52;;;;;;;;;;5074357;28;20090;-60
2021/03/15 04:31:41;;;;;;;26.52;9.18;;;;;;;;;;5075148;28;20040;-59
2021/03/15 04:34:08;;;;;;;21.87;9.93;;;;;;;;;;5074215;28;20040;-60
2021/03/15 04:36:33;;;;;;;29.05;9.75;;;;;;;;;;5074979;28;20107;-59
2021/03/15 04:38:59;;;;;;;23.75;9.23;;;;;;;;;;5074975;28;20115;-59
2021/03/15 04:41:25;;;;;;;29.20;10.50;;;;;;;;;;5092353;28;20115;-59
2021/03/15 04:43:50;;;;;;;22.75;9.40;;;;;;;;;;5093057;28;20523;-59
2021/03/15 04:46:17;;;;;;;19.40;8.60;;;;;;;;;;5092420;28;20139;-59
2021/03/15 04:48:43;;;;;;;25.98;8.95;;;;;;;;;;5092999;28;20487;-59
2021/03/15 04:51:08;;;;;;;;;;;;;;;;;;5092720;28;20039;-59
2021/03/15 04:53:37;;;;;;;18.70;8.90;;;;;;;;;;5092894;28;19908;-59
2021/03/15 04:56:06;;;;;;;24.33;9.25;;;;;;;;;;5092607;28;20024;-59
2021/03/15 04:58:33;;;;;;;26.67;9.68;;;;;;;;;;5092593;28;20104;-59
2021/03/15 05:01:01;;;;;;;27.88;9.05;;;;;;;;;;5074027;28;20404;-59
2021/03/15 05:03:27;;;;;;;19.60;9.68;;;;;;;;;;5091588;28;20360;-59
2021/03/15 05:05:54;;;;;;;22.77;9.23;;;;;;;;;;5092720;28;20024;-59
2021/03/15 05:08:22;;;;;;;22.53;8.53;;;;;;;;;;5091986;28;20028;-58
2021/03/15 05:10:48;;;;;;;19.95;8.30;;;;;;;;;;5074372;28;20248;-59
2021/03/15 05:13:13;;;;;;;25.73;10.30;;;;;;;;;;5073976;28;20089;-58
2021/03/15 05:15:39;;;;;;;22.97;8.73;;;;;;;;;;5074204;28;20024;-59
2021/03/15 05:18:08;;;;;;;19.77;8.17;;;;;;;;;;5092343;28;20110;-59
2021/03/15 05:20:35;;;;;;;22.05;8.25;;;;;;;;;;5091546;28;20039;-59
2021/03/15 05:23:01;;;;;;;22.88;9.10;;;;;;;;;;5092306;28;20043;-59
2021/03/15 05:25:27;;;;;;;23.80;9.18;;;;;;;;;;5091572;28;20379;-58
2021/03/15 05:27:52;;;;;;;34.93;10.03;;;;;;;;;;5092066;28;20036;-59
2021/03/15 05:30:19;;;;;;;19.70;8.50;;;;;;;;;;5091970;28;20115;-59
2021/03/15 05:32:44;;;;;;;;;;;;;;;;;;5074539;28;20104;-58
2021/03/15 05:35:10;;;;;;;28.63;10.00;;;;;;;;;;5073958;28;19966;-58
2021/03/15 05:37:36;;;;;;;24.98;9.77;;;;;;;;;;5091242;28;20123;-58
2021/03/15 05:40:04;;;;;;;30.80;10.20;;;;;;;;;;5091701;28;20134;-59
2021/03/15 05:42:41;;;;;;;27.73;9.63;;;;;;;;;;5091179;28;20464;-59
2021/03/15 05:45:06;;;;;;;29.60;11.38;;;;;;;;;;5092188;28;20053;-59
2021/03/15 05:47:44;;;;;;;24.53;10.07;;;;;;;;;;5090967;28;20115;-60
2021/03/15 05:50:09;;;;;;;;;;;;;;;;;;5092536;28;20055;-59
2021/03/15 05:52:49;;;;;;;25.50;11.07;;;;;;;;;;5091075;28;20349;-58
2021/03/15 05:55:26;;;;;;;23.92;10.05;;;;;;;;;;5091020;28;20035;-59
2021/03/15 05:58:08;;;;;;;40.03;12.05;;;;;;;;;;5092074;28;20124;-59
2021/03/15 06:00:40;;;;;;;22.77;10.88;;;;;;;;;;5091362;28;20087;-59
2021/03/15 06:03:24;;;;;;;29.42;11.88;;;;;;;;;;5073552;28;20039;-59
2021/03/15 06:05:53;;;;;;;31.20;11.70;;;;;;;;;;5091663;28;20044;-59
2021/03/15 06:08:20;;;;;;;32.17;12.30;;;;;;;;;;5072993;28;20036;-58
2021/03/15 06:10:57;;;;;;;34.95;12.65;;;;;;;;;;5074923;28;20028;-60
2021/03/15 06:13:23;;;;;;;29.58;11.98;;;;;;;;;;5094494;28;20036;-58
2021/03/15 06:15:48;;;;;;;36.10;11.83;;;;;;;;;;5058776;28;20036;-59
2021/03/15 06:18:15;;;;;;;28.00;12.15;;;;;;;;;;5093275;28;20389;-60
2021/03/15 06:20:46;;;;;;;32.63;11.68;;;;;;;;;;5056877;28;20175;-58
2021/03/15 06:23:11;;;;;;;28.67;11.90;;;;;;;;;;5091683;28;20035;-59
2021/03/15 06:25:37;;;;;;;29.63;11.17;;;;;;;;;;5072997;28;20034;-58
2021/03/15 06:28:03;;;;;;;27.67;11.95;;;;;;;;;;5092628;28;20059;-59
2021/03/15 06:30:28;;;;;;;32.72;13.60;;;;;;;;;;5090821;28;20032;-59
2021/03/15 06:32:54;;;;;;;29.60;10.47;;;;;;;;;;5091531;28;20453;-59
2021/03/15 06:35:23;;;;;;;24.48;11.30;;;;;;;;;;5090884;28;20063;-59
2021/03/15 06:37:48;;;;;;;28.38;9.40;;;;;;;;;;5088409;28;20039;-59
2021/03/15 06:40:14;;;;;;;18.50;8.00;;;;;;;;;;5073193;28;20395;-59
2021/03/15 06:42:39;;;;;;;21.65;8.77;;;;;;;;;;5090022;28;20065;-59
2021/03/15 06:45:05;;;;;;;18.07;8.63;;;;;;;;;;5091310;28;20119;-59
2021/03/15 06:47:31;;;;;;;22.88;8.70;;;;;;;;;;5089252;28;20259;-59
2021/03/15 06:49:56;;;;;;;21.53;8.07;;;;;;;;;;5092489;28;20024;-58
2021/03/15 06:52:22;;;;;;;23.17;6.73;;;;;;;;;;5076613;28;20060;-58
2021/03/15 06:54:57;;;;;;;27.33;7.95;;;;;;;;;;5094908;28;20503;-59
2021/03/15 06:57:23;;;;;;;22.63;7.03;;;;;;;;;;5060618;28;20056;-59
2021/03/15 06:59:56;;;;;;;20.30;6.53;;;;;;;;;;5076797;28;20056;-58
2021/03/15 07:02:24;;;;;;;16.77;6.97;;;;;;;;;;5095188;28;20166;-58
2021/03/15 07:04:50;;;;;;;22.10;6.30;;;;;;;;;;5096830;28;20035;-59
2021/03/15 07:07:22;;;;;;;19.00;6.32;;;;;;;;;;5095381;28;20443;-59
2021/03/15 07:09:48;;;;;;;20.23;5.80;;;;;;;;;;5094244;28;20048;-59
2021/03/15 07:12:17;;;;;;;23.60;4.97;;;;;;;;;;5094034;28;20028;-58
2021/03/15 07:14:42;;;;;;;17.65;5.78;;;;;;;;;;5075310;28;20099;-60
2021/03/15 07:17:18;;;;;;;34.77;5.40;;;;;;;;;;5076404;28;20190;-60
2021/03/15 07:19:44;;;;;;;19.45;5.15;;;;;;;;;;5094401;28;20028;-58
2021/03/15 07:22:26;;;;;;;27.13;5.00;;;;;;;;;;5075978;28;20024;-59
2021/03/15 07:25:12;;;;;;;22.55;5.15;;;;;;;;;;5076683;28;20028;-59
2021/03/15 07:27:39;;;;;;;21.17;4.55;;;;;;;;;;5075600;28;20036;-60
2021/03/15 07:30:04;;;;;;;;;;;;;;;;;;5076609;28;20066;-59
2021/03/15 07:32:39;;;;;;;17.50;4.30;;;;;;;;;;5093610;28;20404;-60
2021/03/15 07:35:18;;;;;;;27.17;4.95;;;;;;;;;;5075782;28;20383;-59
2021/03/15 07:37:44;;;;;;;13.05;3.88;;;;;;;;;;5093417;28;20032;-59
2021/03/15 07:40:09;;;;;;;16.55;4.80;;;;;;;;;;5094283;28;20043;-59
2021/03/15 07:42:35;;;;;;;21.77;3.97;;;;;;;;;;5058833;28;20042;-59
2021/03/15 07:45:00;;;;;;;18.67;3.90;;;;;;;;;;5093728;28;20131;-59
2021/03/15 07:47:27;;;;;;;21.60;4.15;;;;;;;;;;5093968;28;20107;-59
2021/03/15 07:49:58;;;;;;;34.90;4.85;;;;;;;;;;5093273;28;20035;-59
2021/03/15 07:52:38;;;;;;;40.42;5.70;;;;;;;;;;5094061;28;20035;-58
2021/03/15 07:55:04;;;;;;;24.10;5.35;;;;;;;;;;5094055;28;20024;-58
2021/03/15 07:57:31;;;;;;;27.80;5.17;;;;;;;;;;5075395;28;20089;-58
2021/03/15 07:59:57;;;;;;;22.45;4.40;;;;;;;;;;5075176;28;20881;-58
2021/03/15 08:02:27;;;;;;;21.20;3.50;;;;;;;;;;5093029;28;20024;-58
2021/03/15 08:04:53;;;;;;;20.42;3.88;;;;;;;;;;5092969;28;20315;-58
2021/03/15 08:07:20;;;;;;;24.70;4.18;;;;;;;;;;5093762;28;20051;-58
2021/03/15 08:09:47;;;;;;;27.63;4.28;;;;;;;;;;5093042;28;20032;-57
2021/03/15 08:12:14;;;;;;;22.38;3.90;;;;;;;;;;5093588;28;20027;-59
2021/03/15 08:14:42;;;;;;;21.33;4.45;;;;;;;;;;5093039;28;20039;-59
2021/03/15 08:17:08;;;;;;;30.80;4.38;;;;;;;;;;5093084;28;20496;-58
2021/03/15 08:19:35;;;;;;;31.40;3.58;;;;;;;;;;5073888;28;20044;-60
2021/03/15 08:22:01;;;;;;;17.40;5.80;;;;;;;;;;5092992;28;20036;-60
2021/03/15 08:24:27;;;;;;;17.42;3.58;;;;;;;;;;5092963;28;20028;-59
2021/03/15 08:26:53;;;;;;;44.87;4.80;;;;;;;;;;5057544;28;20048;-57
2021/03/15 08:29:18;;;;;;;13.57;2.50;;;;;;;;;;5071400;28;20272;-58
2021/03/15 08:31:46;;;;;;;9.77;1.90;;;;;;;;;;5073053;28;20413;-58
2021/03/15 08:34:12;;;;;;;14.20;2.30;;;;;;;;;;5091922;28;20407;-59
2021/03/15 08:36:41;;;;;;;16.30;2.38;;;;;;;;;;5091160;28;20123;-59
2021/03/15 08:39:26;;;;;;;10.05;2.15;;;;;;;;;;5091620;28;20035;-58
2021/03/15 08:42:11;;;;;;;14.15;2.65;;;;;;;;;;5071593;28;20344;-58
2021/03/15 08:44:40;;;;;;;15.85;2.65;;;;;;;;;;5089664;28;20035;-58
2021/03/15 08:47:06;;;;;;;22.30;2.92;;;;;;;;;;5091735;28;20475;-58
2021/03/15 08:49:32;;;;;;;15.93;3.13;;;;;;;;;;5091687;28;20055;-58
2021/03/15 08:51:57;;;;;;;11.70;2.90;;;;;;;;;;5090777;28;20320;-59
2021/03/15 08:54:36;;;;;;;17.10;2.00;;;;;;;;;;5091610;28;20419;-59
2021/03/15 08:57:01;;;;;;;10.45;1.83;;;;;;;;;;5087933;28;20067;-59
2021/03/15 08:59:30;;;;;;;10.70;1.90;;;;;;;;;;5090237;28;20024;-58
2021/03/15 09:02:00;;;;;;;11.10;3.20;;;;;;;;;;5091176;28;20043;-58
2021/03/15 09:04:55;;;;;;;12.77;2.40;;;;;;;;;;5091220;28;20031;-59
2021/03/15 09:07:31;;;;;;;15.68;2.72;;;;;;;;;;5069688;28;20314;-59
2021/03/15 09:09:56;;;;;;;10.47;2.20;;;;;;;;;;5088912;28;20031;-59
2021/03/15 09:12:22;;;;;;;15.37;3.10;;;;;;;;;;5071721;28;20269;-59
2021/03/15 09:14:54;;;;;;;18.53;4.97;;;;;;;;;;5089845;28;20020;-59
2021/03/15 09:17:19;;;;;;;15.37;3.33;;;;;;;;;;5072615;28;20300;-59
2021/03/15 09:19:47;;;;;;;18.47;3.97;;;;;;;;;;5090413;28;20879;-59
2021/03/15 09:22:26;;;;;;;19.57;2.73;;;;;;;;;;5088640;28;20028;-59
2021/03/15 09:24:52;;;;;;;20.93;3.07;;;;;;;;;;5087717;28;20724;-58
2021/03/15 09:27:36;;;;;;;12.27;3.38;;;;;;;;;;5091046;28;20253;-58
2021/03/15 09:30:35;;;;;;;13.07;2.30;;;;;;;;;;5088438;28;20472;-58
2021/03/15 09:33:01;;;;;;;7.83;2.33;;;;;;;;;;5032598;28;20965;-59
2021/03/15 09:35:28;;;;;;;22.67;3.30;;;;;;;;;;5090531;28;20295;-58
2021/03/15 09:37:58;;;;;;;15.17;2.57;;;;;;;;;;5089971;28;20039;-58
2021/03/15 09:40:25;;;;;;;9.77;2.20;;;;;;;;;;5071724;28;20261;-59
2021/03/15 09:42:50;;;;;;;12.80;1.80;;;;;;;;;;5087088;28;20328;-58
2021/03/15 09:45:36;;;;;;;19.40;2.83;;;;;;;;;;5090589;28;20394;-58
2021/03/15 09:48:15;;;;;;;13.70;2.40;;;;;;;;;;5071750;28;20051;-58
2021/03/15 09:50:44;;;;;;;8.48;1.58;;;;;;;;;;5087979;28;20261;-59
2021/03/15 09:53:16;;;;;;;10.10;3.10;;;;;;;;;;5072442;28;20107;-58
2021/03/15 09:56:07;;;;;;;12.93;2.37;;;;;;;;;;5071636;28;20257;-58
2021/03/15 09:58:38;;;;;;;10.52;2.85;;;;;;;;;;5088379;28;20261;-58
2021/03/15 10:01:11;;;;;;;12.83;2.73;;;;;;;;;;5072104;28;20410;-59
2021/03/15 10:03:59;;;;;;;10.23;1.93;;;;;;;;;;5087271;28;20268;-58
2021/03/15 10:06:51;;;;;;;11.77;2.30;;;;;;;;;;5086234;28;20351;-58
2021/03/15 10:09:39;;;;;;;7.43;1.30;;;;;;;;;;5072627;28;20337;-57
2021/03/15 10:12:25;;;;;;;12.77;3.33;;;;;;;;;;5057325;28;20345;-58
2021/03/15 10:15:13;;;;;;;11.43;1.93;;;;;;;;;;5088497;28;20257;-60
2021/03/15 10:17:51;;;;;;;11.27;2.10;;;;;;;;;;5071115;28;20284;-58
2021/03/15 10:20:27;;;;;;;18.13;2.67;;;;;;;;;;5090309;28;20269;-58
2021/03/15 10:22:54;;;;;;;14.33;1.97;;;;;;;;;;5088136;28;20314;-58
2021/03/15 10:25:21;;;;;;;9.83;2.03;;;;;;;;;;5076429;28;20249;-59
2021/03/15 10:27:54;;;;;;;11.63;1.98;;;;;;;;;;5064917;28;20853;-59
2021/03/15 10:30:25;;;;;;;9.37;1.67;;;;;;;;;;5096165;27;20068;-58
2021/03/15 10:32:50;;;;;;;8.43;1.80;;;;;;;;;;5111992;28;20360;-58
2021/03/15 10:35:18;;;;;;;6.77;2.20;;;;;;;;;;5078867;28;20772;-58
2021/03/15 10:37:56;;;;;;;13.53;3.40;;;;;;;;;;5076929;28;20051;-58
2021/03/15 10:40:32;;;;;;;13.17;2.03;;;;;;;;;;5077452;28;20268;-59
2021/03/15 10:42:57;;;;;;;5.73;1.60;;;;;;;;;;5094607;28;20278;-57
2021/03/15 10:45:27;;;;;;;17.93;2.23;;;;;;;;;;5094302;28;20642;-58
2021/03/15 10:48:03;;;;;;;10.73;1.53;;;;;;;;;;5077439;28;20617;-58
2021/03/15 10:50:34;;;;;;;12.90;1.80;;;;;;;;;;5076985;28;20272;-56
2021/03/15 10:53:22;;;;;;;7.97;1.80;;;;;;;;;;5095697;28;20372;-59
2021/03/15 10:55:48;;;;;;;15.93;2.37;;;;;;;;;;5077174;28;20291;-58
2021/03/15 10:58:18;;;;;;;18.20;2.60;;;;;;;;;;5076279;28;20371;-58
2021/03/15 11:01:02;;;;;;;12.15;2.25;;;;;;;;;;5075453;28;20044;-58
2021/03/15 11:03:31;;;;;;;9.93;2.08;;;;;;;;;;5076787;28;20047;-58
2021/03/15 11:06:05;;;;;;;19.15;3.03;;;;;;;;;;5060518;28;20036;-58
2021/03/15 11:08:31;;;;;;;12.70;2.22;;;;;;;;;;5076649;28;20032;-58
2021/03/15 11:11:11;;;;;;;15.17;2.93;;;;;;;;;;5094357;28;20434;-58
2021/03/15 11:13:40;;;;;;;12.03;2.00;;;;;;;;;;5094676;28;20130;-58
2021/03/15 11:16:20;;;;;;;12.10;2.57;;;;;;;;;;5073206;28;20269;-58
2021/03/15 11:18:47;;;;;;;10.30;1.90;;;;;;;;;;5075577;28;20402;-58
2021/03/15 11:21:13;;;;;;;15.27;3.50;;;;;;;;;;5075572;28;20470;-58
2021/03/15 11:23:54;;;;;;;16.00;2.00;;;;;;;;;;5075531;28;20277;-60
2021/03/15 11:26:55;;;;;;;9.48;2.22;;;;;;;;;;5077129;28;20351;-59
2021/03/15 11:29:35;;;;;;;11.60;2.17;;;;;;;;;;5080239;28;20028;-58
2021/03/15 11:32:07;;;;;;;6.93;1.57;;;;;;;;;;5075491;28;20271;-58
2021/03/15 11:34:33;;;;;;;7.60;1.80;;;;;;;;;;5059324;28;20584;-59
2021/03/15 11:37:04;;;;;;;15.63;3.17;;;;;;;;;;5074036;28;20280;-59
2021/03/15 11:39:44;;;;;;;12.03;1.80;;;;;;;;;;5076079;28;20071;-58
2021/03/15 11:42:22;;;;;;;11.87;2.60;;;;;;;;;;5075197;28;20268;-58
2021/03/15 11:44:47;;;;;;;9.43;1.93;;;;;;;;;;5075424;28;20318;-58
2021/03/15 11:47:13;;;;;;;12.37;2.53;;;;;;;;;;5093725;28;20284;-57
2021/03/15 11:49:55;;;;;;;9.23;1.60;;;;;;;;;;5080920;28;20035;-58
2021/03/15 11:52:26;;;;;;;10.67;2.73;;;;;;;;;;5075937;28;20744;-57
2021/03/15 11:55:09;;;;;;;10.13;1.70;;;;;;;;;;5060751;28;20257;-58
2021/03/15 11:57:36;;;;;;;11.07;2.20;;;;;;;;;;5076116;28;20664;-58
2021/03/15 12:00:06;;;;;;;16.63;2.35;;;;;;;;;;5064501;28;20286;-58
2021/03/15 12:02:42;;;;;;;10.53;2.07;;;;;;;;;;5052419;28;20114;-57
2021/03/15 12:05:12;;;;;;;9.13;2.03;;;;;;;;;;5051709;28;20854;-57
2021/03/15 12:07:38;;;;;;;17.43;2.13;;;;;;;;;;5052561;28;20333;-57
2021/03/15 12:10:05;;;;;;;15.60;2.40;;;;;;;;;;5059347;28;20384;-58
2021/03/15 12:12:32;;;;;;;8.50;2.67;;;;;;;;;;5063343;28;20045;-57
2021/03/15 12:15:07;;;;;;;11.00;2.50;;;;;;;;;;5063924;28;20748;-58
2021/03/15 12:17:33;;;;;;;13.57;3.33;;;;;;;;;;5080966;28;20322;-57
2021/03/15 12:19:59;;;;;;;9.82;1.98;;;;;;;;;;5077839;28;20325;-57
2021/03/15 12:22:46;;;;;;;10.47;3.13;;;;;;;;;;5072585;28;20029;-57
2021/03/15 12:25:14;;;;;;;14.50;3.53;;;;;;;;;;5071269;28;20713;-55
2021/03/15 12:27:45;;;;;;;10.27;1.60;;;;;;;;;;5071261;28;20273;-58
2021/03/15 12:30:14;;;;;;;10.67;2.07;;;;;;;;;;5071519;28;20273;-56
2021/03/15 12:32:39;;;;;;;10.70;1.83;;;;;;;;;;5073159;28;20257;-57
2021/03/15 12:35:06;;;;;;;10.80;2.30;;;;;;;;;;5072531;28;20767;-57
2021/03/15 12:37:32;;;;;;;;;;;;;;;;;;5073276;28;20079;-58
2021/03/15 12:39:57;;;;;;;6.13;1.37;;;;;;;;;;5071714;28;19956;-57
2021/03/15 12:42:27;;;;;;;8.73;2.50;;;;;;;;;;5070976;28;20447;-58
2021/03/15 12:45:01;;;;;;;9.07;1.70;;;;;;;;;;5071614;28;20269;-55
2021/03/15 12:47:34;;;;;;;13.03;2.77;;;;;;;;;;5072803;28;20423;-58
2021/03/15 12:50:00;;;;;;;12.83;2.50;;;;;;;;;;5073538;28;20790;-57
2021/03/15 12:52:29;;;;;;;10.97;2.07;;;;;;;;;;5055546;28;20020;-57
2021/03/15 12:55:04;;;;;;;9.55;2.20;;;;;;;;;;5073759;28;20273;-57
2021/03/15 12:57:30;;;;;;;17.13;4.93;;;;;;;;;;5064604;28;20481;-61
2021/03/15 13:00:02;;;;;;;11.07;3.17;;;;;;;;;;5035344;28;20305;-58
2021/03/15 13:02:36;;;;;;;16.73;3.83;;;;;;;;;;5036823;28;20283;-59
2021/03/15 13:05:01;;;;;;;11.50;2.90;;;;;;;;;;5051608;28;20634;-58
2021/03/15 13:07:28;;;;;;;12.57;3.53;;;;;;;;;;5050372;28;20063;-58
2021/03/15 13:09:59;;;;;;;16.07;3.10;;;;;;;;;;5051361;28;20284;-57
2021/03/15 13:12:37;;;;;;;9.00;3.03;;;;;;;;;;5050919;28;20734;-57
2021/03/15 13:15:09;;;;;;;13.70;3.60;;;;;;;;;;5051019;28;20258;-59
2021/03/15 13:17:42;;;;;;;11.17;2.37;;;;;;;;;;5052054;28;20336;-58
2021/03/15 13:20:12;;;;;;;29.90;3.83;;;;;;;;;;5050846;28;20278;-56
2021/03/15 13:22:47;;;;;;;8.33;2.00;;;;;;;;;;5052506;28;20353;-57
2021/03/15 13:25:19;;;;;;;7.70;1.97;;;;;;;;;;5051811;28;20324;-57
2021/03/15 13:27:44;;;;;;;10.23;1.98;;;;;;;;;;5050628;28;20630;-58
2021/03/15 13:30:14;;;;;;;7.83;2.73;;;;;;;;;;5050223;28;20033;-56
2021/03/15 13:32:40;;;;;;;9.85;2.97;;;;;;;;;;5050731;28;20266;-57
2021/03/15 13:35:07;;;;;;;9.80;2.47;;;;;;;;;;5050933;28;20039;-58
2021/03/15 13:37:32;;;;;;;13.65;2.38;;;;;;;;;;5049228;28;20036;-58
2021/03/15 13:40:30;;;;;;;15.73;2.35;;;;;;;;;;5027895;28;20081;-58
2021/03/15 13:43:11;;;;;;;12.70;2.83;;;;;;;;;;5049686;28;20045;-58
2021/03/15 13:45:42;;;;;;;13.83;2.83;;;;;;;;;;5050307;28;20269;-58
2021/03/15 13:48:13;;;;;;;13.87;2.10;;;;;;;;;;5051090;28;20264;-58
2021/03/15 13:50:40;;;;;;;10.83;2.40;;;;;;;;;;5049727;28;20274;-58
2021/03/15 13:53:05;;;;;;;8.03;1.80;;;;;;;;;;5051714;28;20082;-59
2021/03/15 13:55:31;;;;;;;11.15;2.33;;;;;;;;;;5049182;28;20637;-59
2021/03/15 13:57:56;;;;;;;10.48;2.13;;;;;;;;;;5051139;28;20076;-58
2021/03/15 14:00:30;;;;;;;6.43;2.17;;;;;;;;;;5035215;28;20052;-57
2021/03/15 14:03:18;;;;;;;12.07;2.33;;;;;;;;;;5049217;28;20258;-57
2021/03/15 14:05:44;;;;;;;10.23;2.90;;;;;;;;;;5051095;28;20610;-58
2021/03/15 14:08:10;;;;;;;13.07;3.53;;;;;;;;;;5049880;28;20029;-57
2021/03/15 14:10:36;;;;;;;11.88;3.45;;;;;;;;;;5050728;28;20033;-58
2021/03/15 14:13:04;;;;;;;12.37;3.73;;;;;;;;;;5049061;28;20489;-57
2021/03/15 14:15:32;;;;;;;19.97;3.03;;;;;;;;;;5048890;28;20284;-58
2021/03/15 14:18:26;;;;;;;15.43;2.50;;;;;;;;;;5037209;28;20750;-57
2021/03/15 14:21:07;;;;;;;23.37;2.73;;;;;;;;;;5050085;28;20262;-58
2021/03/15 14:23:33;;;;;;;8.13;1.95;;;;;;;;;;5049313;28;20717;-58
2021/03/15 14:25:59;;;;;;;15.20;5.65;;;;;;;;;;5032937;28;20033;-58
2021/03/15 14:28:44;;;;;;;10.43;3.53;;;;;;;;;;5050480;28;20037;-56
2021/03/15 14:31:33;;;;;;;14.73;3.53;;;;;;;;;;5049439;28;20273;-58
2021/03/15 14:34:02;;;;;;;10.73;2.33;;;;;;;;;;5049551;28;20740;-56
2021/03/15 14:36:28;;;;;;;12.88;2.50;;;;;;;;;;5050042;28;20273;-57
2021/03/15 14:39:06;;;;;;;15.93;2.90;;;;;;;;;;5049672;28;20060;-57
2021/03/15 14:41:33;;;;;;;16.47;2.80;;;;;;;;;;5048554;28;20365;-57
2021/03/15 14:44:01;;;;;;;22.73;3.23;;;;;;;;;;5049570;28;20281;-57
2021/03/15 14:46:41;;;;;;;14.70;2.40;;;;;;;;;;5048703;28;20305;-56
2021/03/15 14:49:18;;;;;;;20.30;2.90;;;;;;;;;;5048398;28;20741;-57